Time;durP1;ratioP1;P1;durP2;ratioP2;P2;SDS_P1;SDS_P2;PMS_P1;PMS_P2;Temp;Humidity;BMP_temperature;BMP_pressure;BME280_temperature;BME280_humidity;BME280_pressure;Samples;Min_cycle;Max_cycle;Signal;HPM_P1;HPM_P2
2022/09/10 00:02:14;;;;;;;1.38;0.75;;;15.50;99.90;;;;;;5014361;28;20220;-76
2022/09/10 00:04:43;;;;;;;0.80;0.80;;;15.50;99.90;;;;;;5013763;28;20687;-75
2022/09/10 00:07:10;;;;;;;1.00;1.00;;;15.40;99.90;;;;;;5007037;28;20306;-76
2022/09/10 00:09:37;;;;;;;0.60;0.60;;;15.30;99.90;;;;;;5012618;28;20240;-75
2022/09/10 00:12:05;;;;;;;0.90;0.90;;;15.30;99.90;;;;;;5007216;28;20219;-75
2022/09/10 00:14:32;;;;;;;1.65;0.80;;;15.20;99.90;;;;;;5009877;28;20677;-75
2022/09/10 00:16:59;;;;;;;0.90;0.90;;;15.20;99.90;;;;;;5008549;28;20203;-75
2022/09/10 00:19:27;;;;;;;0.80;0.80;;;15.20;99.90;;;;;;5011692;28;20242;-74
2022/09/10 00:21:55;;;;;;;0.90;0.90;;;15.20;99.90;;;;;;5009866;28;20234;-74
2022/09/10 00:24:23;;;;;;;0.90;0.90;;;15.20;99.90;;;;;;5011116;28;20201;-75
2022/09/10 00:26:50;;;;;;;0.70;0.70;;;15.20;99.90;;;;;;5007200;28;20216;-75
2022/09/10 00:29:18;;;;;;;0.93;0.93;;;15.20;99.90;;;;;;5007793;28;20219;-77
2022/09/10 00:31:45;;;;;;;0.65;0.65;;;15.20;99.90;;;;;;5008888;28;20953;-75
2022/09/10 00:34:14;;;;;;;2.15;0.80;;;15.20;99.90;;;;;;5010240;28;20208;-74
2022/09/10 00:36:43;;;;;;;0.90;0.90;;;15.10;99.90;;;;;;5013017;28;20658;-75
2022/09/10 00:39:14;;;;;;;1.00;1.00;;;15.20;99.90;;;;;;5007999;28;20226;-75
2022/09/10 00:41:43;;;;;;;1.08;0.80;;;15.20;99.90;;;;;;5014195;28;20219;-75
2022/09/10 00:44:43;;;;;;;0.88;0.88;;;15.10;99.90;;;;;;5009739;28;20196;-75
2022/09/10 00:47:16;;;;;;;0.75;0.75;;;15.10;99.90;;;;;;5008775;28;20216;-76
2022/09/10 00:49:47;;;;;;;1.55;1.00;;;15.10;99.90;;;;;;5008383;28;20250;-76
2022/09/10 00:52:14;;;;;;;0.80;0.80;;;15.00;99.90;;;;;;5011277;28;20227;-75
2022/09/10 00:54:44;;;;;;;0.82;0.82;;;15.10;99.90;;;;;;5010561;28;20239;-74
2022/09/10 00:57:16;;;;;;;0.85;0.85;;;15.10;99.90;;;;;;5010627;28;20208;-75
2022/09/10 00:59:48;;;;;;;0.93;0.93;;;15.00;99.90;;;;;;5004884;28;20220;-75
2022/09/10 01:02:15;;;;;;;0.80;0.80;;;15.00;99.90;;;;;;5008696;28;20220;-75
2022/09/10 01:04:43;;;;;;;0.90;0.90;;;15.00;99.90;;;;;;5009207;28;20231;-75
2022/09/10 01:07:12;;;;;;;0.80;0.80;;;15.00;99.90;;;;;;5008384;28;20710;-76
2022/09/10 01:09:40;;;;;;;0.90;0.90;;;15.00;99.90;;;;;;5010513;28;20220;-75
2022/09/10 01:12:21;;;;;;;0.82;0.75;;;15.00;99.90;;;;;;5010346;28;20274;-75
2022/09/10 01:15:08;;;;;;;0.80;0.80;;;14.90;99.90;;;;;;5007530;28;20220;-75
2022/09/10 01:17:44;;;;;;;0.82;0.82;;;14.90;99.90;;;;;;5008497;28;20605;-75
2022/09/10 01:21:00;;;;;;;1.45;0.80;;;14.90;99.90;;;;;;5006721;28;20220;-76
2022/09/10 01:24:05;;;;;;;0.93;0.90;;;14.90;99.90;;;;;;5009342;28;20205;-75
2022/09/10 01:26:57;;;;;;;0.77;0.77;;;14.90;99.90;;;;;;5007245;28;20262;-75
2022/09/10 01:29:34;;;;;;;0.82;0.82;;;14.80;99.90;;;;;;5013813;28;21037;-75
2022/09/10 01:32:08;;;;;;;0.90;0.90;;;14.80;99.90;;;;;;5010661;28;20216;-75
2022/09/10 01:34:41;;;;;;;0.88;0.88;;;14.80;99.90;;;;;;5011198;28;20228;-75
2022/09/10 01:37:14;;;;;;;0.80;0.80;;;14.80;99.90;;;;;;5008855;28;20291;-75
2022/09/10 01:39:42;;;;;;;0.70;0.70;;;14.80;99.90;;;;;;5008121;28;20320;-75
2022/09/10 01:42:09;;;;;;;0.73;0.73;;;14.80;99.90;;;;;;5008192;28;20234;-75
2022/09/10 01:44:46;;;;;;;0.90;0.90;;;14.80;99.90;;;;;;5008394;28;20239;-74
2022/09/10 01:47:21;;;;;;;0.90;0.70;;;14.80;99.90;;;;;;5008780;28;20294;-76
2022/09/10 01:50:14;;;;;;;0.73;0.73;;;14.80;99.90;;;;;;5007670;28;21100;-77
2022/09/10 01:52:56;;;;;;;0.90;0.90;;;14.80;99.90;;;;;;5009793;28;20204;-75
2022/09/10 01:55:34;;;;;;;0.80;0.80;;;14.70;99.90;;;;;;5007968;28;20247;-77
2022/09/10 01:58:10;;;;;;;0.75;0.75;;;14.60;99.90;;;;;;5008479;28;20243;-75
2022/09/10 02:00:48;;;;;;;0.80;0.80;;;14.60;99.90;;;;;;5005744;28;20223;-76
2022/09/10 02:03:19;;;;;;;0.68;0.68;;;14.50;99.90;;;;;;5009510;28;20288;-76
2022/09/10 02:05:50;;;;;;;0.93;0.93;;;14.50;99.90;;;;;;5006941;28;20221;-76
2022/09/10 02:08:21;;;;;;;0.70;0.70;;;14.50;99.90;;;;;;5009174;28;20220;-76
2022/09/10 02:10:53;;;;;;;1.00;1.00;;;14.60;99.90;;;;;;5005830;28;20228;-77
2022/09/10 02:13:21;;;;;;;0.80;0.80;;;14.50;99.90;;;;;;5006402;28;20255;-75
2022/09/10 02:15:50;;;;;;;0.90;0.90;;;14.50;99.90;;;;;;5009094;28;20347;-75
2022/09/10 02:18:18;;;;;;;0.85;0.85;;;14.50;99.90;;;;;;5008002;28;20204;-74
2022/09/10 02:20:47;;;;;;;0.95;0.95;;;14.50;99.90;;;;;;5005771;28;20227;-75
2022/09/10 02:23:17;;;;;;;1.40;0.90;;;14.60;99.90;;;;;;5010363;28;20208;-75
2022/09/10 02:25:44;;;;;;;0.70;0.70;;;14.50;99.90;;;;;;5009147;28;20234;-75
2022/09/10 02:28:12;;;;;;;0.70;0.70;;;14.50;99.90;;;;;;5007524;28;20282;-75
2022/09/10 02:30:39;;;;;;;0.90;0.90;;;14.50;99.90;;;;;;5009749;28;20294;-75
2022/09/10 02:33:08;;;;;;;0.90;0.90;;;14.40;99.90;;;;;;5008261;28;20197;-74
2022/09/10 02:35:35;;;;;;;0.95;0.95;;;14.30;99.90;;;;;;5008472;28;20263;-74
2022/09/10 02:38:02;;;;;;;0.80;0.80;;;14.20;99.90;;;;;;5007058;28;20248;-76
2022/09/10 02:40:30;;;;;;;0.77;0.77;;;14.20;99.90;;;;;;5006011;28;20601;-75
2022/09/10 02:42:57;;;;;;;0.80;0.80;;;14.20;99.90;;;;;;5009661;28;20218;-75
2022/09/10 02:45:25;;;;;;;0.80;0.80;;;14.20;99.90;;;;;;5009163;28;20320;-75
2022/09/10 02:47:52;;;;;;;0.98;0.98;;;14.20;99.90;;;;;;5008382;28;20285;-76
2022/09/10 02:50:20;;;;;;;1.38;0.80;;;14.20;99.90;;;;;;5006077;28;20705;-76
2022/09/10 02:52:49;;;;;;;0.80;0.80;;;14.20;99.90;;;;;;5007760;28;20685;-74
2022/09/10 02:55:16;;;;;;;0.98;0.98;;;14.10;99.90;;;;;;5006295;28;20239;-75
2022/09/10 02:57:44;;;;;;;0.80;0.80;;;14.10;99.90;;;;;;5011436;28;20192;-74
2022/09/10 03:00:12;;;;;;;1.10;1.08;;;14.10;99.90;;;;;;5005512;28;20290;-75
2022/09/10 03:02:39;;;;;;;0.80;0.80;;;14.10;99.90;;;;;;5007974;28;20251;-75
2022/09/10 03:05:06;;;;;;;0.80;0.80;;;14.10;99.90;;;;;;5006058;28;20224;-75
2022/09/10 03:07:35;;;;;;;0.82;0.82;;;14.10;99.90;;;;;;5012093;28;20223;-75
2022/09/10 03:10:02;;;;;;;0.90;0.90;;;14.10;99.90;;;;;;5005093;28;20921;-75
2022/09/10 03:12:29;;;;;;;1.05;1.00;;;14.10;99.90;;;;;;5008273;28;20571;-75
2022/09/10 03:14:57;;;;;;;0.93;0.93;;;14.10;99.90;;;;;;5007277;28;20228;-77
2022/09/10 03:17:25;;;;;;;0.80;0.80;;;14.10;99.90;;;;;;5009464;28;20192;-75
2022/09/10 03:19:52;;;;;;;1.08;0.80;;;14.20;99.90;;;;;;5008865;28;20784;-75
2022/09/10 03:22:19;;;;;;;0.77;0.77;;;14.20;99.90;;;;;;5005065;28;20232;-74
2022/09/10 03:24:48;;;;;;;0.90;0.90;;;14.20;99.90;;;;;;5008547;28;20220;-76
2022/09/10 03:27:16;;;;;;;0.80;0.80;;;14.10;99.90;;;;;;5006352;28;20897;-75
2022/09/10 03:29:43;;;;;;;0.70;0.70;;;14.10;99.90;;;;;;5012109;28;20247;-74
2022/09/10 03:32:10;;;;;;;0.80;0.80;;;14.10;99.90;;;;;;5011203;28;20246;-76
2022/09/10 03:34:38;;;;;;;0.90;0.90;;;14.20;99.90;;;;;;5013547;28;20224;-75
2022/09/10 03:37:05;;;;;;;1.15;1.15;;;14.10;99.90;;;;;;5011449;28;20193;-75
2022/09/10 03:39:32;;;;;;;0.82;0.80;;;14.10;99.90;;;;;;5008140;28;20319;-76
2022/09/10 03:42:04;;;;;;;1.20;1.00;;;14.10;99.90;;;;;;5009370;28;20219;-75
2022/09/10 03:44:32;;;;;;;0.73;0.73;;;14.10;99.90;;;;;;5012147;28;20627;-75
2022/09/10 03:46:59;;;;;;;1.10;1.00;;;14.10;99.90;;;;;;5011982;28;20200;-75
2022/09/10 03:49:27;;;;;;;0.70;0.70;;;14.10;99.90;;;;;;5013481;28;20869;-76
2022/09/10 03:51:54;;;;;;;1.00;1.00;;;14.10;99.90;;;;;;5012246;28;20294;-75
2022/09/10 03:54:21;;;;;;;0.95;0.95;;;14.10;99.90;;;;;;5010620;28;20219;-75
2022/09/10 03:56:48;;;;;;;1.00;0.93;;;14.10;99.90;;;;;;5008414;28;20659;-76
2022/09/10 03:59:17;;;;;;;0.85;0.85;;;14.00;99.90;;;;;;5011805;28;20208;-76
2022/09/10 04:01:44;;;;;;;0.82;0.82;;;14.00;99.90;;;;;;5012958;28;20227;-75
2022/09/10 04:04:11;;;;;;;0.77;0.77;;;14.00;99.90;;;;;;5011315;28;20192;-75
2022/09/10 04:06:39;;;;;;;1.40;1.00;;;14.00;99.90;;;;;;5010374;28;20200;-75
2022/09/10 04:09:06;;;;;;;0.80;0.80;;;13.90;99.90;;;;;;5011123;28;20274;-75
2022/09/10 04:11:34;;;;;;;0.93;0.93;;;13.90;99.90;;;;;;5011544;28;20712;-75
2022/09/10 04:14:01;;;;;;;0.75;0.75;;;13.90;99.90;;;;;;5011515;28;20197;-76
2022/09/10 04:16:31;;;;;;;0.90;0.90;;;13.80;99.90;;;;;;5008733;28;20223;-76
2022/09/10 04:18:58;;;;;;;0.80;0.80;;;13.80;99.90;;;;;;5011859;28;20821;-76
2022/09/10 04:21:25;;;;;;;0.80;0.80;;;13.80;99.90;;;;;;5007935;28;20590;-76
2022/09/10 04:23:54;;;;;;;1.40;1.05;;;13.70;99.90;;;;;;5014772;28;20204;-75
2022/09/10 04:26:22;;;;;;;1.85;0.90;;;13.70;99.90;;;;;;5007561;28;20212;-75
2022/09/10 04:28:49;;;;;;;0.65;0.65;;;13.70;99.90;;;;;;5009198;28;20620;-76
2022/09/10 04:31:16;;;;;;;0.82;0.82;;;13.70;99.90;;;;;;5011634;28;20732;-75
2022/09/10 04:33:44;;;;;;;0.90;0.90;;;13.70;99.90;;;;;;5012463;28;20196;-76
2022/09/10 04:36:13;;;;;;;1.00;1.00;;;13.70;99.90;;;;;;5007174;28;20648;-76
2022/09/10 04:38:40;;;;;;;1.23;1.20;;;13.70;99.90;;;;;;5011222;28;20243;-76
2022/09/10 04:41:08;;;;;;;0.77;0.77;;;13.70;99.90;;;;;;5008979;28;20232;-75
2022/09/10 04:43:36;;;;;;;0.90;0.90;;;13.60;99.90;;;;;;5011112;28;20203;-75
2022/09/10 04:46:03;;;;;;;0.73;0.73;;;13.60;99.90;;;;;;5010829;28;20285;-75
2022/09/10 04:48:31;;;;;;;0.80;0.80;;;13.60;99.90;;;;;;5010304;28;20231;-76
2022/09/10 04:51:00;;;;;;;1.10;1.00;;;13.60;99.90;;;;;;5010588;28;20239;-76
2022/09/10 04:53:27;;;;;;;1.10;1.00;;;13.50;99.90;;;;;;5011622;28;20205;-75
2022/09/10 04:55:55;;;;;;;1.00;1.00;;;13.50;99.90;;;;;;5010776;28;20298;-75
2022/09/10 04:58:22;;;;;;;0.95;0.95;;;13.50;99.90;;;;;;5009794;28;20302;-75
2022/09/10 05:00:50;;;;;;;0.98;0.98;;;13.40;99.90;;;;;;5008648;28;20215;-78
2022/09/10 05:03:17;;;;;;;0.82;0.82;;;13.40;99.90;;;;;;5013801;28;20606;-76
2022/09/10 05:05:44;;;;;;;0.90;0.90;;;13.40;99.90;;;;;;5009728;28;20694;-76
2022/09/10 05:08:13;;;;;;;0.90;0.90;;;13.40;99.90;;;;;;5008993;28;20236;-74
2022/09/10 05:10:41;;;;;;;0.73;0.73;;;13.50;99.90;;;;;;5007981;28;20236;-75
2022/09/10 05:13:08;;;;;;;1.00;1.00;;;13.50;99.90;;;;;;5011799;28;20250;-74
2022/09/10 05:15:37;;;;;;;1.50;0.70;;;13.50;99.90;;;;;;5010832;28;20224;-76
2022/09/10 05:18:04;;;;;;;1.65;0.70;;;13.50;99.90;;;;;;5008493;28;20674;-75
2022/09/10 05:20:31;;;;;;;0.75;0.75;;;13.50;99.90;;;;;;5010235;28;20216;-77
2022/09/10 05:22:58;;;;;;;0.80;0.80;;;13.60;99.90;;;;;;5010019;28;20192;-75
2022/09/10 05:25:27;;;;;;;0.80;0.80;;;13.70;99.90;;;;;;5009815;28;20209;-75
2022/09/10 05:27:54;;;;;;;0.90;0.90;;;14.10;99.90;;;;;;5008773;28;20204;-75
2022/09/10 05:30:21;;;;;;;0.80;0.80;;;14.50;99.90;;;;;;5008597;28;20239;-76
2022/09/10 05:32:52;;;;;;;0.98;0.80;;;14.90;99.90;;;;;;5050914;22;20235;-72
2022/09/10 05:35:19;;;;;;;0.82;0.82;;;15.30;99.90;;;;;;5037394;28;20615;-72
2022/09/10 05:37:46;;;;;;;0.70;0.70;;;15.60;99.90;;;;;;5044025;28;20191;-72
2022/09/10 05:40:15;;;;;;;1.55;0.98;;;16.00;99.90;;;;;;5046523;28;20735;-72
2022/09/10 05:42:43;;;;;;;1.02;0.80;;;16.30;99.90;;;;;;5039041;28;20246;-74
2022/09/10 05:45:11;;;;;;;0.80;0.80;;;16.70;99.90;;;;;;5029015;28;20262;-72
2022/09/10 05:47:38;;;;;;;0.80;0.80;;;16.80;99.90;;;;;;5027797;28;20842;-75
2022/09/10 05:50:06;;;;;;;0.90;0.90;;;16.90;99.90;;;;;;5029465;28;20247;-74
2022/09/10 05:52:33;;;;;;;1.40;0.90;;;16.80;99.90;;;;;;5029452;28;20456;-75
2022/09/10 05:55:00;;;;;;;0.85;0.85;;;16.90;99.90;;;;;;5027356;28;20219;-75
2022/09/10 05:57:27;;;;;;;0.88;0.88;;;17.10;99.90;;;;;;5032736;28;20552;-75
2022/09/10 05:59:56;;;;;;;1.20;1.10;;;17.30;99.90;;;;;;5026310;28;20216;-75
2022/09/10 06:02:23;;;;;;;1.13;1.02;;;17.30;99.90;;;;;;5031858;28;20239;-74
2022/09/10 06:04:50;;;;;;;1.05;1.00;;;17.40;99.90;;;;;;5025417;28;20730;-74
2022/09/10 06:07:18;;;;;;;1.10;1.00;;;17.40;99.90;;;;;;5019795;28;20200;-74
2022/09/10 06:09:45;;;;;;;1.10;0.95;;;17.50;99.90;;;;;;5024421;28;20223;-75
2022/09/10 06:12:12;;;;;;;1.02;1.02;;;17.40;99.90;;;;;;5035419;28;20246;-75
2022/09/10 06:14:39;;;;;;;1.95;1.35;;;17.60;99.90;;;;;;5024322;28;20234;-75
2022/09/10 06:17:08;;;;;;;1.95;1.02;;;17.80;99.90;;;;;;5025199;28;20196;-75
2022/09/10 06:19:35;;;;;;;0.80;0.80;;;17.80;99.90;;;;;;5029041;28;20226;-75
2022/09/10 06:22:02;;;;;;;1.65;1.30;;;18.00;99.90;;;;;;5030010;28;20227;-74
2022/09/10 06:24:29;;;;;;;0.80;0.80;;;18.10;99.90;;;;;;5033739;28;20228;-75
2022/09/10 06:26:57;;;;;;;0.73;0.73;;;17.90;99.90;;;;;;5026407;28;20249;-75
2022/09/10 06:29:24;;;;;;;2.42;1.00;;;17.80;99.90;;;;;;5024755;28;20313;-75
2022/09/10 06:31:51;;;;;;;0.63;0.63;;;17.80;99.90;;;;;;5034870;28;20245;-75
2022/09/10 06:34:19;;;;;;;0.93;0.93;;;17.80;99.90;;;;;;5024601;28;20559;-75
2022/09/10 06:36:48;;;;;;;2.05;0.93;;;17.90;99.90;;;;;;5023115;28;20196;-75
2022/09/10 06:39:15;;;;;;;1.08;0.90;;;17.80;99.90;;;;;;5018982;28;20556;-75
2022/09/10 06:41:44;;;;;;;1.45;1.00;;;17.70;99.90;;;;;;5026628;28;20812;-75
2022/09/10 06:44:11;;;;;;;3.13;0.88;;;18.00;99.90;;;;;;5025394;28;20765;-75
2022/09/10 06:46:38;;;;;;;0.90;0.90;;;18.30;99.90;;;;;;5027261;28;20203;-75
2022/09/10 06:49:06;;;;;;;0.70;0.70;;;18.60;99.90;;;;;;5022376;28;20218;-75
2022/09/10 06:51:34;;;;;;;0.98;0.90;;;18.80;99.90;;;;;;5030199;28;20592;-75
2022/09/10 06:54:02;;;;;;;1.02;0.70;;;19.00;99.90;;;;;;5029280;28;20200;-75
2022/09/10 06:56:29;;;;;;;3.03;1.05;;;19.00;99.90;;;;;;5022581;28;20701;-75
2022/09/10 06:58:57;;;;;;;0.70;0.70;;;19.00;99.90;;;;;;5029365;28;21593;-75
2022/09/10 07:01:24;;;;;;;1.80;0.90;;;18.90;99.90;;;;;;5026985;28;20220;-75
2022/09/10 07:03:56;;;;;;;0.88;0.80;;;18.80;99.90;;;;;;5026636;28;20219;-75
2022/09/10 07:06:24;;;;;;;1.50;0.70;;;18.80;99.90;;;;;;5029222;28;20223;-75
2022/09/10 07:08:56;;;;;;;2.65;0.80;;;18.80;99.90;;;;;;5029000;28;20214;-75
2022/09/10 07:11:25;;;;;;;0.98;0.65;;;18.80;99.90;;;;;;5028213;28;20221;-75
2022/09/10 07:13:53;;;;;;;1.27;0.82;;;19.00;99.90;;;;;;5026529;28;20219;-75
2022/09/10 07:16:21;;;;;;;0.70;0.70;;;19.20;99.90;;;;;;5025251;28;20643;-75
2022/09/10 07:18:49;;;;;;;1.00;1.00;;;19.20;99.90;;;;;;5031778;28;20208;-75
2022/09/10 07:21:18;;;;;;;2.25;0.95;;;19.40;99.90;;;;;;5024160;28;20595;-74
2022/09/10 07:23:47;;;;;;;2.50;1.17;;;19.30;99.90;;;;;;5026616;28;20314;-74
2022/09/10 07:26:18;;;;;;;4.20;1.38;;;19.30;99.90;;;;;;5028228;28;20215;-75
2022/09/10 07:28:46;;;;;;;1.23;0.82;;;19.30;99.90;;;;;;5027927;28;20230;-76
2022/09/10 07:31:16;;;;;;;1.52;0.60;;;19.20;99.90;;;;;;5030197;28;20724;-75
2022/09/10 07:33:44;;;;;;;4.13;1.23;;;19.30;99.90;;;;;;5026861;28;20227;-75
2022/09/10 07:36:12;;;;;;;0.95;0.90;;;19.20;99.90;;;;;;5028562;28;20227;-76
2022/09/10 07:38:40;;;;;;;1.02;1.00;;;19.20;99.90;;;;;;5029579;28;20471;-76
2022/09/10 07:41:10;;;;;;;1.70;1.00;;;19.40;99.90;;;;;;5025715;28;20585;-76
2022/09/10 07:43:38;;;;;;;0.95;0.95;;;19.40;99.90;;;;;;5022317;28;20306;-76
2022/09/10 07:46:06;;;;;;;2.10;0.90;;;19.50;99.90;;;;;;5029125;28;20214;-76
2022/09/10 07:48:34;;;;;;;1.40;0.90;;;19.60;99.90;;;;;;5028298;28;20199;-77
2022/09/10 07:51:02;;;;;;;1.95;0.90;;;19.90;99.90;;;;;;5029730;28;20459;-76
2022/09/10 07:53:29;;;;;;;1.70;1.02;;;20.00;99.90;;;;;;5031452;28;20273;-77
2022/09/10 07:56:01;;;;;;;1.48;0.70;;;20.10;99.90;;;;;;5025031;28;20208;-77
2022/09/10 07:58:30;;;;;;;1.55;0.60;;;20.00;99.90;;;;;;5026215;28;20706;-77
2022/09/10 08:00:59;;;;;;;1.10;0.85;;;20.10;99.90;;;;;;5028993;28;20738;-77
2022/09/10 08:03:27;;;;;;;0.82;0.65;;;20.60;99.90;;;;;;5025002;28;20224;-77
2022/09/10 08:05:54;;;;;;;0.70;0.70;;;20.80;99.90;;;;;;5023204;28;20795;-77
2022/09/10 08:08:21;;;;;;;0.70;0.70;;;20.90;99.90;;;;;;5032147;28;20206;-76
2022/09/10 08:10:48;;;;;;;1.17;0.65;;;20.90;99.90;;;;;;5024897;28;20224;-77
2022/09/10 08:13:16;;;;;;;1.17;0.70;;;21.30;99.90;;;;;;5029887;28;20219;-77
2022/09/10 08:15:44;;;;;;;0.90;0.70;;;21.40;99.90;;;;;;5027808;28;20219;-77
2022/09/10 08:18:13;;;;;;;0.65;0.65;;;21.60;99.90;;;;;;5030853;28;20278;-77
2022/09/10 08:20:40;;;;;;;1.33;0.65;;;21.60;99.90;;;;;;5029193;28;20226;-77
2022/09/10 08:23:07;;;;;;;0.70;0.70;;;21.30;99.90;;;;;;5030881;28;20718;-77
2022/09/10 08:25:35;;;;;;;0.80;0.80;;;21.30;99.90;;;;;;5028287;28;20215;-77
2022/09/10 08:28:02;;;;;;;3.40;0.88;;;21.20;99.90;;;;;;5028871;28;20919;-77
2022/09/10 08:30:30;;;;;;;0.77;0.73;;;21.10;99.90;;;;;;5027308;28;20215;-76
2022/09/10 08:32:58;;;;;;;0.73;0.73;;;21.00;99.90;;;;;;5025669;28;20321;-77
2022/09/10 08:35:26;;;;;;;0.80;0.80;;;21.10;99.90;;;;;;5023564;28;20220;-77
2022/09/10 08:37:53;;;;;;;0.75;0.75;;;21.10;99.90;;;;;;5024690;28;20196;-77
2022/09/10 08:40:22;;;;;;;1.02;0.70;;;21.20;99.90;;;;;;5025098;28;20310;-77
2022/09/10 08:42:51;;;;;;;1.00;0.82;;;21.30;99.90;;;;;;5028636;28;20220;-77
2022/09/10 08:45:22;;;;;;;2.45;0.80;;;21.50;99.90;;;;;;5030875;28;20217;-77
2022/09/10 08:47:56;;;;;;;0.80;0.80;;;21.50;99.90;;;;;;5027015;28;20210;-77
2022/09/10 08:50:36;;;;;;;0.90;0.75;;;21.50;99.90;;;;;;5026274;28;20227;-78
2022/09/10 08:53:12;;;;;;;0.70;0.70;;;21.50;99.90;;;;;;5029606;28;20219;-77
2022/09/10 08:55:41;;;;;;;1.23;0.70;;;21.40;99.90;;;;;;5022538;28;20216;-77
2022/09/10 08:58:13;;;;;;;3.20;0.95;;;21.50;99.90;;;;;;5022957;28;20207;-78
2022/09/10 09:00:44;;;;;;;2.67;0.82;;;21.90;99.90;;;;;;5026843;28;20312;-78
2022/09/10 09:03:18;;;;;;;1.08;0.77;;;21.80;99.90;;;;;;5024438;28;20223;-77
2022/09/10 09:05:49;;;;;;;3.28;0.82;;;21.50;99.90;;;;;;5026918;28;20302;-77
2022/09/10 09:08:24;;;;;;;2.53;0.93;;;21.30;99.90;;;;;;5026974;28;20195;-80
2022/09/10 09:10:56;;;;;;;0.55;0.55;;;21.20;99.90;;;;;;5023640;28;20316;-78
2022/09/10 09:13:35;;;;;;;0.95;0.70;;;21.20;99.90;;;;;;5023558;28;20700;-77
2022/09/10 09:16:20;;;;;;;1.10;1.00;;;21.30;99.90;;;;;;5020972;28;20268;-76
2022/09/10 09:19:04;;;;;;;0.68;0.65;;;21.30;99.90;;;;;;5023990;28;20785;-77
2022/09/10 09:21:42;;;;;;;1.10;0.70;;;21.40;99.90;;;;;;5026940;28;20306;-76
2022/09/10 09:24:21;;;;;;;1.85;0.70;;;21.90;99.90;;;;;;5023252;28;20728;-76
2022/09/10 09:26:49;;;;;;;0.70;0.70;;;22.30;99.90;;;;;;5021953;28;20667;-76
2022/09/10 09:29:22;;;;;;;1.20;0.70;;;22.40;99.90;;;;;;5035446;28;20342;-77
2022/09/10 09:31:55;;;;;;;0.60;0.60;;;22.50;99.90;;;;;;5031820;28;20231;-76
2022/09/10 09:34:28;;;;;;;4.32;0.90;;;22.30;99.90;;;;;;5025681;28;20192;-77
2022/09/10 09:36:59;;;;;;;1.33;0.80;;;22.00;99.90;;;;;;5029848;28;20210;-76
2022/09/10 09:39:31;;;;;;;0.98;0.80;;;22.10;99.90;;;;;;5026593;28;20200;-76
2022/09/10 09:42:06;;;;;;;0.70;0.70;;;22.40;99.90;;;;;;5030180;28;20215;-76
2022/09/10 09:44:39;;;;;;;1.00;0.73;;;22.50;99.90;;;;;;5030695;28;20237;-79
2022/09/10 09:47:08;;;;;;;0.70;0.70;;;22.60;99.90;;;;;;5022005;28;20253;-76
2022/09/10 09:49:35;;;;;;;1.20;0.70;;;22.80;99.90;;;;;;5025133;28;20225;-77
2022/09/10 09:52:17;;;;;;;0.70;0.70;;;22.70;99.90;;;;;;5021950;28;20215;-76
2022/09/10 09:54:51;;;;;;;0.73;0.68;;;22.80;99.90;;;;;;5032464;28;20278;-78
2022/09/10 09:57:19;;;;;;;1.65;0.50;;;22.80;99.90;;;;;;5030085;28;20257;-77
2022/09/10 09:59:48;;;;;;;0.63;0.63;;;23.00;99.90;;;;;;5023675;28;20588;-76
2022/09/10 10:02:17;;;;;;;1.10;0.60;;;23.40;99.90;;;;;;5026505;28;20303;-77
2022/09/10 10:04:55;;;;;;;1.58;0.70;;;23.70;99.90;;;;;;5025831;28;20228;-76
2022/09/10 10:07:30;;;;;;;1.70;0.70;;;23.60;99.90;;;;;;5019524;28;20226;-76
2022/09/10 10:09:59;;;;;;;0.63;0.63;;;23.80;99.90;;;;;;5022885;28;20219;-76
2022/09/10 10:12:30;;;;;;;0.80;0.80;;;23.80;99.90;;;;;;5024463;28;20223;-76
2022/09/10 10:14:57;;;;;;;0.73;0.73;;;23.90;99.90;;;;;;5026619;28;20235;-76
2022/09/10 10:17:34;;;;;;;0.55;0.50;;;23.90;99.90;;;;;;5028927;28;20206;-75
2022/09/10 10:20:08;;;;;;;1.35;0.50;;;23.60;99.90;;;;;;5029743;28;20219;-76
2022/09/10 10:22:38;;;;;;;0.57;0.57;;;23.40;99.90;;;;;;5025529;28;20302;-74
2022/09/10 10:25:26;;;;;;;0.68;0.68;;;23.10;99.90;;;;;;5019262;28;20215;-76
2022/09/10 10:27:54;;;;;;;1.65;0.60;;;22.80;99.90;;;;;;5023090;28;20222;-76
2022/09/10 10:30:23;;;;;;;0.52;0.50;;;22.90;99.90;;;;;;5028167;28;20220;-76
2022/09/10 10:32:54;;;;;;;0.70;0.70;;;23.10;99.90;;;;;;5022956;28;20227;-76
2022/09/10 10:35:32;;;;;;;1.20;0.80;;;22.90;99.90;;;;;;5019260;28;20227;-77
2022/09/10 10:38:27;;;;;;;0.63;0.60;;;22.70;99.90;;;;;;5028493;28;20195;-76
2022/09/10 10:41:17;;;;;;;1.20;0.80;;;22.40;99.90;;;;;;5030925;28;20269;-76
2022/09/10 10:43:53;;;;;;;0.50;0.50;;;22.40;99.90;;;;;;5014635;28;20276;-76
2022/09/10 10:46:21;;;;;;;0.55;0.55;;;22.90;99.90;;;;;;5024379;28;20216;-76
2022/09/10 10:49:01;;;;;;;1.50;0.70;;;23.30;99.90;;;;;;5027826;28;20203;-75
2022/09/10 10:51:40;;;;;;;0.70;0.70;;;23.50;99.90;;;;;;5021823;28;20219;-75
2022/09/10 10:54:27;;;;;;;1.67;0.60;;;23.80;99.90;;;;;;5026720;28;20588;-76
2022/09/10 10:57:02;;;;;;;1.30;0.70;;;24.10;99.90;;;;;;5021943;28;20218;-76
2022/09/10 10:59:44;;;;;;;0.57;0.50;;;24.40;99.90;;;;;;5030371;28;20234;-76
2022/09/10 11:02:15;;;;;;;0.55;0.50;;;24.40;99.90;;;;;;5045113;28;20211;-76
2022/09/10 11:04:49;;;;;;;0.70;0.70;;;24.50;99.90;;;;;;5041286;28;20215;-76
2022/09/10 11:07:22;;;;;;;0.70;0.70;;;24.90;99.90;;;;;;5042192;28;20189;-76
2022/09/10 11:09:56;;;;;;;0.52;0.50;;;25.20;99.90;;;;;;5044638;28;20215;-76
2022/09/10 11:12:30;;;;;;;0.50;0.50;;;25.20;99.90;;;;;;5040098;28;20219;-75
2022/09/10 11:15:03;;;;;;;0.50;0.50;;;24.80;99.90;;;;;;5047419;28;20223;-75
2022/09/10 11:17:38;;;;;;;0.98;0.50;;;25.00;99.90;;;;;;5039467;28;20199;-75
2022/09/10 11:20:17;;;;;;;0.75;0.60;;;24.90;99.90;;;;;;5046834;28;20238;-75
2022/09/10 11:22:49;;;;;;;0.63;0.63;;;24.70;99.90;;;;;;5048750;28;20311;-75
2022/09/10 11:25:22;;;;;;;1.20;0.60;;;24.80;99.90;;;;;;5042374;28;20226;-75
2022/09/10 11:27:54;;;;;;;1.13;0.70;;;24.50;99.90;;;;;;5052988;28;20191;-75
2022/09/10 11:30:22;;;;;;;0.80;0.70;;;24.20;99.90;;;;;;5038081;28;20212;-75
2022/09/10 11:32:57;;;;;;;1.38;0.52;;;24.30;99.90;;;;;;5047891;28;20227;-76
2022/09/10 11:35:28;;;;;;;0.50;0.50;;;24.40;99.90;;;;;;5048747;28;20204;-75
2022/09/10 11:38:06;;;;;;;1.40;0.50;;;24.50;99.90;;;;;;5045918;28;20199;-75
2022/09/10 11:40:41;;;;;;;0.50;0.50;;;24.70;99.90;;;;;;5050224;28;20219;-77
2022/09/10 11:43:13;;;;;;;0.52;0.40;;;24.80;99.90;;;;;;5046399;28;20225;-75
2022/09/10 11:45:46;;;;;;;2.28;0.50;;;25.00;99.90;;;;;;5045615;28;20231;-75
2022/09/10 11:48:19;;;;;;;0.82;0.68;;;25.10;99.90;;;;;;5054744;28;20192;-75
2022/09/10 11:50:51;;;;;;;1.92;0.50;;;25.00;99.90;;;;;;5047782;28;20227;-77
2022/09/10 11:53:22;;;;;;;0.40;0.40;;;25.20;99.90;;;;;;5050545;28;20231;-75
2022/09/10 11:56:14;;;;;;;0.50;0.50;;;25.20;99.90;;;;;;5048802;28;20215;-76
2022/09/10 11:58:52;;;;;;;0.82;0.70;;;25.10;99.90;;;;;;5051461;28;20201;-75
2022/09/10 12:01:32;;;;;;;0.50;0.50;;;25.00;99.90;;;;;;5053042;28;20211;-75
2022/09/10 12:04:26;;;;;;;1.58;0.75;;;25.10;99.90;;;;;;5050132;28;20202;-75
2022/09/10 12:07:03;;;;;;;0.50;0.50;;;25.30;99.90;;;;;;5054826;28;20215;-75
2022/09/10 12:09:37;;;;;;;0.50;0.50;;;25.50;99.90;;;;;;5053500;28;20206;-75
2022/09/10 12:12:13;;;;;;;0.60;0.50;;;25.50;99.90;;;;;;5045813;28;20207;-75
2022/09/10 12:14:41;;;;;;;0.50;0.50;;;25.50;99.90;;;;;;5046955;28;20222;-76
2022/09/10 12:17:14;;;;;;;0.47;0.47;;;25.30;99.90;;;;;;5054433;28;20203;-75
2022/09/10 12:19:46;;;;;;;0.68;0.68;;;25.20;99.90;;;;;;5054486;28;20227;-75
2022/09/10 12:22:21;;;;;;;0.60;0.60;;;25.00;99.90;;;;;;5055781;28;20211;-76
2022/09/10 12:24:53;;;;;;;0.50;0.50;;;24.90;99.90;;;;;;5054047;28;20223;-75
2022/09/10 12:27:30;;;;;;;0.40;0.40;;;25.00;99.90;;;;;;5043874;28;20196;-75
2022/09/10 12:30:17;;;;;;;0.50;0.50;;;25.00;99.90;;;;;;5044004;28;20213;-75
2022/09/10 12:32:44;;;;;;;1.40;0.50;;;25.20;99.90;;;;;;5050173;28;20227;-76
2022/09/10 12:35:45;;;;;;;0.40;0.40;;;25.30;99.90;;;;;;5046082;28;20228;-76
2022/09/10 12:38:47;;;;;;;0.60;0.60;;;25.30;99.90;;;;;;5044575;28;20218;-76
2022/09/10 12:41:47;;;;;;;1.40;0.60;;;25.40;99.90;;;;;;5045545;28;20223;-75
2022/09/10 12:44:43;;;;;;;0.57;0.50;;;25.50;99.90;;;;;;5051311;28;20180;-75
2022/09/10 12:47:46;;;;;;;0.50;0.50;;;25.50;99.90;;;;;;5051184;28;20195;-75
2022/09/10 12:50:44;;;;;;;0.55;0.55;;;25.20;99.90;;;;;;5049196;28;20245;-75
2022/09/10 12:53:37;;;;;;;0.45;0.43;;;24.70;99.90;;;;;;5044136;28;20247;-75
2022/09/10 12:56:31;;;;;;;0.57;0.57;;;24.50;99.90;;;;;;5044104;28;20219;-75
2022/09/10 12:59:17;;;;;;;0.60;0.60;;;24.20;99.90;;;;;;5038683;28;20213;-75
2022/09/10 13:01:47;;;;;;;0.50;0.50;;;23.90;99.90;;;;;;5045888;28;20206;-75
2022/09/10 13:04:27;;;;;;;3.10;0.60;;;23.70;99.90;;;;;;5053196;28;20210;-75
2022/09/10 13:06:59;;;;;;;0.95;0.40;;;23.40;99.90;;;;;;5053167;28;20191;-75
2022/09/10 13:09:31;;;;;;;0.52;0.50;;;23.00;99.90;;;;;;5040713;28;20211;-75
2022/09/10 13:12:03;;;;;;;1.25;0.60;;;22.80;99.90;;;;;;5048628;28;20223;-75